Time;durP1;ratioP1;P1;durP2;ratioP2;P2;SDS_P1;SDS_P2;PMS_P1;PMS_P2;Temp;Humidity;BMP_temperature;BMP_pressure;BME280_temperature;BME280_humidity;BME280_pressure;Samples;Min_cycle;Max_cycle;Signal;HPM_P1;HPM_P2
2021/12/20 00:00:11;;;;;;;1.42;0.82;;;;;;;;;;4990719;28;20147;-52
2021/12/20 00:02:38;;;;;;;2.70;1.20;;;;;;;;;;4990533;28;20022;-55
2021/12/20 00:05:05;;;;;;;1.83;1.20;;;;;;;;;;4990491;28;20622;-52
2021/12/20 00:07:32;;;;;;;2.17;1.27;;;;;;;;;;4990764;28;20110;-57
2021/12/20 00:09:59;;;;;;;2.03;1.10;;;;;;;;;;4990820;28;20026;-58
2021/12/20 00:12:27;;;;;;;1.88;0.90;;;;;;;;;;4990897;28;20043;-57
2021/12/20 00:14:53;;;;;;;2.05;1.20;;;;;;;;;;4990386;28;20026;-57
2021/12/20 00:17:20;;;;;;;1.08;0.85;;;;;;;;;;4990532;28;20030;-57
2021/12/20 00:19:47;;;;;;;1.73;1.00;;;;;;;;;;4990498;28;20026;-51
2021/12/20 00:22:14;;;;;;;1.77;1.02;;;;;;;;;;4990514;28;20022;-57
2021/12/20 00:24:41;;;;;;;1.65;1.10;;;;;;;;;;4990512;28;20033;-57
2021/12/20 00:27:11;;;;;;;3.10;1.00;;;;;;;;;;4973312;28;20570;-54
2021/12/20 00:29:38;;;;;;;1.08;0.85;;;;;;;;;;4990305;28;20023;-55
2021/12/20 00:32:05;;;;;;;2.00;1.10;;;;;;;;;;4990315;28;20428;-57
2021/12/20 00:34:33;;;;;;;1.50;0.88;;;;;;;;;;4990614;28;20482;-51
2021/12/20 00:40:19;;;;;;;2.13;1.13;;;;;;;;;;4989910;28;20030;-55
2021/12/20 00:42:35;;;;;;;1.67;0.93;;;;;;;;;;4991021;28;20569;-54
2021/12/20 00:45:02;;;;;;;1.52;0.80;;;;;;;;;;4989989;28;20054;-56
2021/12/20 00:47:29;;;;;;;1.67;1.00;;;;;;;;;;4990417;28;20595;-55
2021/12/20 00:49:56;;;;;;;2.55;1.00;;;;;;;;;;4990237;28;20018;-57
2021/12/20 00:52:24;;;;;;;2.03;1.10;;;;;;;;;;4989857;28;20461;-56
2021/12/20 00:54:52;;;;;;;2.35;0.95;;;;;;;;;;4972747;28;20101;-58
2021/12/20 00:57:19;;;;;;;2.15;1.27;;;;;;;;;;4989723;28;20081;-58
2021/12/20 00:59:46;;;;;;;1.27;0.82;;;;;;;;;;4973033;28;20034;-54
2021/12/20 01:02:13;;;;;;;3.28;1.20;;;;;;;;;;4989790;28;20033;-55
2021/12/20 01:04:40;;;;;;;1.00;0.68;;;;;;;;;;4989901;28;20034;-49
2021/12/20 01:07:07;;;;;;;2.42;1.10;;;;;;;;;;4990250;28;20060;-57
2021/12/20 01:09:35;;;;;;;3.00;1.00;;;;;;;;;;4989311;28;20093;-57
2021/12/20 01:12:05;;;;;;;2.53;1.20;;;;;;;;;;4990266;28;20014;-54
2021/12/20 01:14:35;;;;;;;2.17;1.00;;;;;;;;;;4989847;28;20038;-58
2021/12/20 01:17:05;;;;;;;1.58;0.90;;;;;;;;;;4989272;28;20432;-55
2021/12/20 01:19:37;;;;;;;1.70;1.02;;;;;;;;;;4990138;28;20062;-58
2021/12/20 01:22:05;;;;;;;2.67;1.10;;;;;;;;;;4989898;28;20030;-51
2021/12/20 01:24:32;;;;;;;2.20;1.10;;;;;;;;;;4989210;28;20475;-54
2021/12/20 01:26:59;;;;;;;3.78;1.48;;;;;;;;;;4989669;28;20030;-55
2021/12/20 01:29:26;;;;;;;3.03;1.30;;;;;;;;;;4989165;28;20105;-58
2021/12/20 01:31:53;;;;;;;2.17;1.15;;;;;;;;;;4989459;28;20053;-58
2021/12/20 01:34:23;;;;;;;2.00;1.10;;;;;;;;;;4989339;28;20061;-55
2021/12/20 01:36:50;;;;;;;1.05;0.93;;;;;;;;;;4988974;28;20389;-57
2021/12/20 01:39:17;;;;;;;3.03;1.02;;;;;;;;;;4989440;28;20694;-54
2021/12/20 01:41:45;;;;;;;3.55;1.30;;;;;;;;;;4989050;28;20034;-55
2021/12/20 01:44:13;;;;;;;2.78;1.00;;;;;;;;;;4972022;28;20045;-53
2021/12/20 01:46:40;;;;;;;3.10;1.58;;;;;;;;;;4989693;28;20018;-58
2021/12/20 01:49:11;;;;;;;1.58;1.08;;;;;;;;;;4988659;28;20030;-55
2021/12/20 01:52:26;;;;;;;2.50;1.30;;;;;;;;;;4989333;28;20053;-52
2021/12/20 01:54:32;;;;;;;2.53;1.08;;;;;;;;;;4983227;28;20040;-58
2021/12/20 01:56:59;;;;;;;2.13;1.30;;;;;;;;;;4988865;28;20041;-55
2021/12/20 01:59:26;;;;;;;5.75;1.23;;;;;;;;;;4989059;28;20093;-58
2021/12/20 02:01:53;;;;;;;4.15;1.20;;;;;;;;;;4989077;28;20094;-58
2021/12/20 02:04:21;;;;;;;2.33;1.25;;;;;;;;;;4989041;28;20390;-53
2021/12/20 02:06:48;;;;;;;1.38;0.93;;;;;;;;;;4988863;28;20022;-56
2021/12/20 02:09:17;;;;;;;2.67;1.00;;;;;;;;;;4988774;28;20443;-55
2021/12/20 02:11:47;;;;;;;1.88;1.20;;;;;;;;;;4989060;28;20037;-58
2021/12/20 02:14:14;;;;;;;1.92;1.20;;;;;;;;;;4988797;28;20054;-55
2021/12/20 02:16:42;;;;;;;1.75;1.20;;;;;;;;;;4988802;28;20100;-56
2021/12/20 02:19:11;;;;;;;1.83;1.10;;;;;;;;;;4988748;28;20039;-54
2021/12/20 02:21:38;;;;;;;2.65;1.17;;;;;;;;;;4988626;28;20069;-57
2021/12/20 02:24:05;;;;;;;3.90;1.27;;;;;;;;;;4985859;28;20026;-55
2021/12/20 02:26:32;;;;;;;1.45;0.88;;;;;;;;;;4985574;28;20019;-54
2021/12/20 02:29:05;;;;;;;1.98;1.00;;;;;;;;;;4986600;28;20037;-50
2021/12/20 02:39:44;;;;;;;4.65;1.23;;;;;;;;;;4987880;28;20022;-54
2021/12/20 02:42:15;;;;;;;1.98;0.90;;;;;;;;;;4988209;28;20030;-58
2021/12/20 02:45:06;;;;;;;5.90;1.27;;;;;;;;;;4988287;28;20026;-50
2021/12/20 02:47:33;;;;;;;1.02;0.80;;;;;;;;;;4990473;28;20038;-53
2021/12/20 02:50:00;;;;;;;2.13;1.23;;;;;;;;;;4987970;28;20026;-57
2021/12/20 02:52:27;;;;;;;1.38;0.93;;;;;;;;;;4987881;28;20038;-56
2021/12/20 02:54:54;;;;;;;3.55;0.98;;;;;;;;;;4969104;28;20510;-56
2021/12/20 02:57:21;;;;;;;3.80;0.98;;;;;;;;;;4967508;28;20042;-55
2021/12/20 02:59:49;;;;;;;2.00;1.13;;;;;;;;;;4966858;28;20034;-53
2021/12/20 03:02:18;;;;;;;1.98;1.05;;;;;;;;;;4970016;28;20106;-54
2021/12/20 03:04:46;;;;;;;5.70;3.40;;;;;;;;;;4966705;28;20035;-52
2021/12/20 03:07:16;;;;;;;8.88;5.22;;;;;;;;;;4966990;28;20033;-51
2021/12/20 03:09:50;;;;;;;11.68;7.45;;;;;;;;;;4966973;28;20088;-52
2021/12/20 03:12:17;;;;;;;20.70;9.88;;;;;;;;;;4967204;28;20022;-52
2021/12/20 03:14:47;;;;;;;22.10;9.93;;;;;;;;;;4967112;28;20073;-53
2021/12/20 03:17:14;;;;;;;21.27;10.52;;;;;;;;;;4967285;28;20030;-53
2021/12/20 03:19:42;;;;;;;20.30;9.27;;;;;;;;;;4967226;28;20054;-54
2021/12/20 03:22:12;;;;;;;18.17;7.57;;;;;;;;;;4971943;28;20026;-55
2021/12/20 03:24:39;;;;;;;14.60;6.97;;;;;;;;;;4967926;28;20089;-55
2021/12/20 03:27:07;;;;;;;15.40;5.97;;;;;;;;;;4969987;28;20366;-52
2021/12/20 03:29:34;;;;;;;11.55;5.13;;;;;;;;;;4967056;28;20038;-55
2021/12/20 03:32:01;;;;;;;9.18;4.60;;;;;;;;;;4968307;28;20119;-52
2021/12/20 03:34:29;;;;;;;7.13;3.83;;;;;;;;;;4968289;28;20027;-58
2021/12/20 03:36:56;;;;;;;9.27;3.83;;;;;;;;;;4968391;28;20415;-53
2021/12/20 03:39:23;;;;;;;6.13;3.42;;;;;;;;;;4970162;28;20042;-58
2021/12/20 03:41:50;;;;;;;5.10;3.15;;;;;;;;;;4972513;28;20022;-51
2021/12/20 03:44:17;;;;;;;5.55;3.00;;;;;;;;;;4971991;28;20033;-53
2021/12/20 03:46:44;;;;;;;8.93;2.90;;;;;;;;;;4972368;28;20749;-55
2021/12/20 03:49:11;;;;;;;4.25;2.38;;;;;;;;;;4972347;28;20390;-51
2021/12/20 03:51:38;;;;;;;6.00;2.35;;;;;;;;;;4971817;28;20085;-54
2021/12/20 03:54:06;;;;;;;4.75;2.20;;;;;;;;;;4973457;28;20031;-51
2021/12/20 03:56:33;;;;;;;3.67;1.90;;;;;;;;;;4991542;28;20034;-51
2021/12/20 03:59:00;;;;;;;3.30;1.65;;;;;;;;;;4991250;28;20049;-54
2021/12/20 04:01:27;;;;;;;4.85;1.90;;;;;;;;;;4991750;28;20022;-50
2021/12/20 04:03:57;;;;;;;2.15;1.38;;;;;;;;;;4990676;28;20065;-55
2021/12/20 04:06:24;;;;;;;3.65;1.52;;;;;;;;;;4991486;28;20097;-54
2021/12/20 04:08:52;;;;;;;2.95;1.58;;;;;;;;;;4990262;28;20034;-52
2021/12/20 04:11:19;;;;;;;3.55;1.80;;;;;;;;;;4990921;28;20022;-52
2021/12/20 04:13:46;;;;;;;2.95;1.40;;;;;;;;;;4974106;28;20038;-55
2021/12/20 04:16:13;;;;;;;3.45;1.40;;;;;;;;;;4990983;28;20458;-54
2021/12/20 04:18:40;;;;;;;2.95;1.50;;;;;;;;;;4990798;28;20093;-57
2021/12/20 04:21:07;;;;;;;4.35;1.25;;;;;;;;;;4991159;28;20146;-54
2021/12/20 04:23:34;;;;;;;4.22;1.63;;;;;;;;;;4990871;28;20081;-55
2021/12/20 04:26:01;;;;;;;3.35;1.60;;;;;;;;;;4990929;28;20580;-55
2021/12/20 04:28:28;;;;;;;4.50;1.35;;;;;;;;;;4990629;28;20742;-55
2021/12/20 04:30:55;;;;;;;3.38;1.52;;;;;;;;;;4990928;28;20640;-55
2021/12/20 04:33:22;;;;;;;2.60;1.20;;;;;;;;;;4990743;28;20057;-49
2021/12/20 04:35:49;;;;;;;3.15;1.48;;;;;;;;;;4990344;28;20026;-56
2021/12/20 04:38:18;;;;;;;2.88;1.10;;;;;;;;;;4990214;28;20050;-50
2021/12/20 04:40:45;;;;;;;3.40;1.27;;;;;;;;;;4989484;28;20041;-56
2021/12/20 04:43:12;;;;;;;2.35;1.52;;;;;;;;;;4990495;28;20041;-55
2021/12/20 04:45:40;;;;;;;4.55;1.15;;;;;;;;;;4973338;28;20073;-55
2021/12/20 04:48:07;;;;;;;3.22;1.33;;;;;;;;;;4989976;28;20058;-55
2021/12/20 04:50:34;;;;;;;1.73;1.05;;;;;;;;;;4990154;28;20038;-51
2021/12/20 04:53:01;;;;;;;1.45;1.00;;;;;;;;;;4990190;28;20105;-56
2021/12/20 04:55:29;;;;;;;2.25;0.90;;;;;;;;;;4989953;28;20078;-54
2021/12/20 04:57:57;;;;;;;4.07;1.13;;;;;;;;;;4990034;28;20029;-51
2021/12/20 05:00:33;;;;;;;2.53;0.90;;;;;;;;;;4989792;28;20026;-56
2021/12/20 05:03:01;;;;;;;1.60;0.85;;;;;;;;;;4990158;28;20034;-53
2021/12/20 05:05:28;;;;;;;3.22;1.20;;;;;;;;;;4989921;28;20066;-55
2021/12/20 05:07:55;;;;;;;2.65;1.15;;;;;;;;;;4989649;28;20029;-55
2021/12/20 05:10:26;;;;;;;5.00;1.33;;;;;;;;;;4990312;28;20117;-53
2021/12/20 05:12:54;;;;;;;3.63;1.63;;;;;;;;;;4989622;28;20018;-53
2021/12/20 05:15:21;;;;;;;2.08;0.63;;;;;;;;;;4971391;28;20054;-52
2021/12/20 05:17:48;;;;;;;2.95;1.00;;;;;;;;;;4989639;28;20093;-53
2021/12/20 05:20:15;;;;;;;2.90;1.13;;;;;;;;;;4989251;28;20504;-53
2021/12/20 05:22:42;;;;;;;3.50;1.02;;;;;;;;;;4989807;28;20035;-52
2021/12/20 05:25:09;;;;;;;2.95;0.93;;;;;;;;;;4989513;28;20023;-51
2021/12/20 05:27:36;;;;;;;2.75;1.10;;;;;;;;;;4989369;28;20037;-51
2021/12/20 05:30:05;;;;;;;2.58;1.02;;;;;;;;;;4989761;28;20030;-58
2021/12/20 05:32:32;;;;;;;2.30;0.90;;;;;;;;;;4989094;28;20029;-57
2021/12/20 05:35:00;;;;;;;4.80;1.00;;;;;;;;;;4989471;28;20032;-54
2021/12/20 05:37:27;;;;;;;1.38;0.70;;;;;;;;;;4988803;28;20110;-59
2021/12/20 05:39:54;;;;;;;1.63;0.88;;;;;;;;;;4971501;28;20030;-56
2021/12/20 05:42:21;;;;;;;2.00;0.82;;;;;;;;;;4972007;28;20114;-57
2021/12/20 05:44:50;;;;;;;2.10;0.90;;;;;;;;;;4988884;28;20504;-54
2021/12/20 05:49:46;;;;;;;2.03;0.68;;;;;;;;;;4953116;28;20050;-51
2021/12/20 05:52:13;;;;;;;5.97;0.70;;;;;;;;;;4992591;28;20038;-58
2021/12/20 05:54:40;;;;;;;1.90;0.60;;;;;;;;;;4992126;28;20026;-58
2021/12/20 05:57:07;;;;;;;0.95;0.50;;;;;;;;;;4992354;28;20030;-58
2021/12/20 05:59:34;;;;;;;2.00;0.68;;;;;;;;;;4992173;28;20448;-58
2021/12/20 06:02:01;;;;;;;3.85;0.70;;;;;;;;;;4990034;28;20474;-59
2021/12/20 06:04:28;;;;;;;4.60;1.45;;;;;;;;;;4991382;28;20455;-54
2021/12/20 06:06:55;;;;;;;2.25;0.60;;;;;;;;;;4992182;28;20026;-58
2021/12/20 06:09:22;;;;;;;1.05;0.60;;;;;;;;;;4991427;28;20030;-58
2021/12/20 06:11:49;;;;;;;2.60;0.60;;;;;;;;;;4991966;28;20058;-57
2021/12/20 06:14:16;;;;;;;1.80;0.60;;;;;;;;;;4991885;28;20034;-56
2021/12/20 06:16:43;;;;;;;2.63;0.68;;;;;;;;;;4991979;28;20077;-57
2021/12/20 06:19:10;;;;;;;2.03;0.70;;;;;;;;;;4991901;28;20046;-57
2021/12/20 06:21:37;;;;;;;3.65;0.70;;;;;;;;;;4991364;28;20049;-54
2021/12/20 06:24:05;;;;;;;1.15;0.73;;;;;;;;;;4991896;28;20030;-58
2021/12/20 06:26:32;;;;;;;1.55;0.73;;;;;;;;;;4992078;28;20030;-53
2021/12/20 06:28:59;;;;;;;4.35;0.75;;;;;;;;;;4991908;28;20054;-57
2021/12/20 06:31:26;;;;;;;3.35;0.80;;;;;;;;;;4991895;28;20063;-58
2021/12/20 06:33:53;;;;;;;2.63;0.70;;;;;;;;;;4991075;28;20939;-55
2021/12/20 06:36:21;;;;;;;2.72;0.82;;;;;;;;;;4991732;28;20080;-53
2021/12/20 06:38:49;;;;;;;1.42;0.68;;;;;;;;;;4991307;28;20166;-55
2021/12/20 06:41:18;;;;;;;1.45;0.80;;;;;;;;;;4991563;28;20030;-53
2021/12/20 06:43:45;;;;;;;1.25;0.90;;;;;;;;;;4991784;28;20109;-55
2021/12/20 06:46:12;;;;;;;2.03;0.98;;;;;;;;;;4991590;28;20033;-50
2021/12/20 06:48:39;;;;;;;3.22;0.90;;;;;;;;;;4991593;28;20053;-55
2021/12/20 06:51:06;;;;;;;2.17;0.82;;;;;;;;;;4991761;28;20029;-55
2021/12/20 06:53:33;;;;;;;4.03;0.93;;;;;;;;;;5000565;28;20091;-53
2021/12/20 06:56:00;;;;;;;1.70;0.75;;;;;;;;;;5011417;28;20022;-51
2021/12/20 06:58:27;;;;;;;1.95;0.73;;;;;;;;;;5011013;28;20038;-52
2021/12/20 07:00:54;;;;;;;3.42;0.68;;;;;;;;;;5011255;28;20014;-58
2021/12/20 07:03:22;;;;;;;1.65;0.70;;;;;;;;;;5011090;28;20034;-55
2021/12/20 07:05:49;;;;;;;1.23;0.68;;;;;;;;;;5010482;28;20393;-57
2021/12/20 07:08:16;;;;;;;1.48;0.80;;;;;;;;;;5011233;28;20454;-54
2021/12/20 07:10:43;;;;;;;4.75;1.08;;;;;;;;;;5010917;28;20026;-55
2021/12/20 07:13:11;;;;;;;3.35;0.90;;;;;;;;;;5012579;28;20026;-54
2021/12/20 07:15:39;;;;;;;2.80;1.30;;;;;;;;;;5014356;28;20080;-58
2021/12/20 07:18:06;;;;;;;2.03;0.88;;;;;;;;;;5014440;28;20037;-58
2021/12/20 07:20:34;;;;;;;2.90;1.00;;;;;;;;;;5014543;28;20026;-55
2021/12/20 07:23:01;;;;;;;1.45;0.70;;;;;;;;;;5014792;28;20029;-58
2021/12/20 07:25:28;;;;;;;2.22;0.80;;;;;;;;;;5014137;28;20077;-48
2021/12/20 07:27:55;;;;;;;2.63;0.73;;;;;;;;;;5014616;28;20021;-58
2021/12/20 07:30:22;;;;;;;2.25;0.70;;;;;;;;;;5014417;28;20401;-52
2021/12/20 07:32:49;;;;;;;2.90;0.90;;;;;;;;;;5014687;28;20111;-52
2021/12/20 07:35:16;;;;;;;3.10;0.95;;;;;;;;;;5014279;28;20030;-50
2021/12/20 07:37:44;;;;;;;1.48;0.90;;;;;;;;;;5014021;28;20049;-55
2021/12/20 07:40:12;;;;;;;1.92;0.75;;;;;;;;;;5014284;28;20071;-55
2021/12/20 07:42:39;;;;;;;1.35;0.70;;;;;;;;;;5014148;28;20104;-52
2021/12/20 07:45:08;;;;;;;1.83;0.70;;;;;;;;;;5014058;28;20077;-55
2021/12/20 07:47:35;;;;;;;2.47;0.90;;;;;;;;;;5013922;28;20417;-53
2021/12/20 07:50:02;;;;;;;2.00;0.70;;;;;;;;;;5013814;28;20030;-56
2021/12/20 07:52:29;;;;;;;1.63;0.63;;;;;;;;;;5014534;28;20025;-53
2021/12/20 07:54:56;;;;;;;5.97;2.10;;;;;;;;;;5013840;28;20038;-55
2021/12/20 07:57:23;;;;;;;1.45;0.70;;;;;;;;;;5013945;28;20458;-51
2021/12/20 07:59:50;;;;;;;1.95;0.70;;;;;;;;;;4996511;28;20096;-54
2021/12/20 08:02:17;;;;;;;2.15;0.80;;;;;;;;;;5014213;28;20018;-54
2021/12/20 08:04:49;;;;;;;1.65;0.68;;;;;;;;;;5013960;28;20448;-53
2021/12/20 08:07:18;;;;;;;1.17;0.60;;;;;;;;;;5013509;28;20084;-52
2021/12/20 08:09:45;;;;;;;2.70;0.70;;;;;;;;;;5013533;28;20034;-52
2021/12/20 08:12:12;;;;;;;1.75;0.70;;;;;;;;;;5013783;28;20057;-50
2021/12/20 08:14:39;;;;;;;2.17;0.70;;;;;;;;;;5013878;28;20029;-58
2021/12/20 08:17:06;;;;;;;1.67;0.80;;;;;;;;;;5013943;28;20036;-60
2021/12/20 08:19:33;;;;;;;1.40;0.80;;;;;;;;;;5013467;28;20034;-52
2021/12/20 08:22:00;;;;;;;2.55;0.73;;;;;;;;;;5013517;28;20096;-50
2021/12/20 08:24:27;;;;;;;2.83;0.90;;;;;;;;;;5012914;28;20133;-54
2021/12/20 08:26:54;;;;;;;3.42;0.77;;;;;;;;;;5013027;28;20072;-50
2021/12/20 08:29:23;;;;;;;1.00;0.70;;;;;;;;;;5013168;28;20022;-48
2021/12/20 08:31:54;;;;;;;4.05;0.80;;;;;;;;;;5013549;28;20557;-48
2021/12/20 08:34:21;;;;;;;3.90;0.70;;;;;;;;;;5013361;28;20110;-48
2021/12/20 08:36:51;;;;;;;2.28;0.70;;;;;;;;;;5013195;28;20067;-59
2021/12/20 08:39:19;;;;;;;1.42;0.50;;;;;;;;;;5012906;28;20046;-53
2021/12/20 08:41:46;;;;;;;1.70;0.70;;;;;;;;;;5013536;28;20033;-58
2021/12/20 08:44:14;;;;;;;1.98;0.70;;;;;;;;;;4995721;28;20025;-53
2021/12/20 08:46:41;;;;;;;3.20;0.73;;;;;;;;;;5012695;28;20540;-58
2021/12/20 08:49:08;;;;;;;1.58;0.73;;;;;;;;;;5012861;28;20074;-56
2021/12/20 08:51:36;;;;;;;2.13;0.68;;;;;;;;;;5012968;28;20073;-58
2021/12/20 08:54:03;;;;;;;1.95;0.68;;;;;;;;;;5013132;28;20026;-56
2021/12/20 08:56:30;;;;;;;0.80;0.60;;;;;;;;;;5012735;28;20477;-53
2021/12/20 08:58:57;;;;;;;4.00;0.75;;;;;;;;;;5012823;28;20451;-55
2021/12/20 09:01:24;;;;;;;1.65;0.80;;;;;;;;;;5012603;28;20390;-58
2021/12/20 09:03:51;;;;;;;3.40;0.60;;;;;;;;;;5012913;28;20022;-51
2021/12/20 09:06:22;;;;;;;2.78;0.70;;;;;;;;;;4995062;28;20030;-53
2021/12/20 09:08:50;;;;;;;1.02;0.50;;;;;;;;;;4995849;28;20164;-52
2021/12/20 09:11:17;;;;;;;2.83;0.57;;;;;;;;;;5012696;28;20030;-57
2021/12/20 09:13:44;;;;;;;1.08;0.80;;;;;;;;;;5012837;28;20443;-54
2021/12/20 09:16:11;;;;;;;1.80;0.47;;;;;;;;;;5012029;28;20110;-57
2021/12/20 09:18:38;;;;;;;2.97;0.80;;;;;;;;;;5012407;28;20502;-54
2021/12/20 09:21:05;;;;;;;1.08;0.70;;;;;;;;;;5012398;28;20037;-56
2021/12/20 09:23:32;;;;;;;2.30;0.90;;;;;;;;;;5012612;28;20030;-58
2021/12/20 09:25:59;;;;;;;4.25;1.00;;;;;;;;;;4995038;28;20028;-52
2021/12/20 09:28:26;;;;;;;1.45;0.70;;;;;;;;;;5012379;28;20100;-54
2021/12/20 09:30:53;;;;;;;1.55;0.70;;;;;;;;;;5012471;28;20026;-57
2021/12/20 09:33:20;;;;;;;2.45;0.63;;;;;;;;;;5012602;28;20040;-53
2021/12/20 09:35:50;;;;;;;1.58;0.63;;;;;;;;;;5012436;28;20030;-52
2021/12/20 09:38:18;;;;;;;2.53;0.85;;;;;;;;;;5012270;28;20068;-53
2021/12/20 09:43:29;;;;;;;4.13;1.10;;;;;;;;;;5012361;28;20029;-56
2021/12/20 09:45:58;;;;;;;4.93;0.75;;;;;;;;;;5011847;28;20492;-57
2021/12/20 09:48:25;;;;;;;3.50;0.90;;;;;;;;;;5011641;28;20050;-50
2021/12/20 09:50:52;;;;;;;2.58;0.82;;;;;;;;;;5011891;28;20076;-52
2021/12/20 09:53:19;;;;;;;1.25;0.70;;;;;;;;;;5012286;28;20462;-54
2021/12/20 09:55:51;;;;;;;2.40;0.90;;;;;;;;;;5011228;28;20030;-56
2021/12/20 09:58:21;;;;;;;3.50;0.75;;;;;;;;;;5011638;28;20069;-52
2021/12/20 10:00:49;;;;;;;3.90;1.35;;;;;;;;;;5012056;28;20060;-55
2021/12/20 10:03:20;;;;;;;5.93;1.33;;;;;;;;;;5012136;28;20484;-55
2021/12/20 10:05:47;;;;;;;3.78;0.80;;;;;;;;;;5012027;28;20022;-49
2021/12/20 10:08:19;;;;;;;1.67;0.80;;;;;;;;;;5011148;28;20026;-52
2021/12/20 10:10:48;;;;;;;1.67;0.98;;;;;;;;;;5011656;28;20033;-54
2021/12/20 10:13:27;;;;;;;1.90;0.80;;;;;;;;;;5011834;28;20086;-56
2021/12/20 10:15:56;;;;;;;4.15;0.85;;;;;;;;;;5011740;28;20029;-56
2021/12/20 10:18:24;;;;;;;4.97;0.98;;;;;;;;;;5011438;28;20045;-51
2021/12/20 10:20:53;;;;;;;4.32;1.13;;;;;;;;;;4994543;28;20547;-59
2021/12/20 10:23:27;;;;;;;2.25;1.10;;;;;;;;;;5011537;28;20029;-51
2021/12/20 10:25:55;;;;;;;3.95;0.90;;;;;;;;;;4993624;28;20101;-54
2021/12/20 10:28:24;;;;;;;2.58;0.95;;;;;;;;;;5011494;28;20022;-49
2021/12/20 10:31:02;;;;;;;1.25;0.60;;;;;;;;;;5011296;28;20045;-59
2021/12/20 10:33:29;;;;;;;2.15;1.00;;;;;;;;;;5011148;28;20497;-50
2021/12/20 10:35:58;;;;;;;3.00;1.10;;;;;;;;;;5011498;28;20053;-48
2021/12/20 10:38:31;;;;;;;3.17;0.90;;;;;;;;;;5011010;28;20623;-52
2021/12/20 10:41:00;;;;;;;1.30;0.90;;;;;;;;;;5011444;28;20022;-55
2021/12/20 10:43:34;;;;;;;2.10;0.90;;;;;;;;;;5010801;28;20431;-55
2021/12/20 10:46:08;;;;;;;3.00;1.00;;;;;;;;;;5011438;28;20026;-47
2021/12/20 10:48:35;;;;;;;3.47;0.98;;;;;;;;;;5013265;28;20038;-57
2021/12/20 10:51:03;;;;;;;1.85;0.80;;;;;;;;;;5015234;28;20428;-57
2021/12/20 10:53:30;;;;;;;3.33;1.10;;;;;;;;;;5015303;28;20049;-58
2021/12/20 10:56:06;;;;;;;3.67;0.93;;;;;;;;;;5015429;28;20030;-59
2021/12/20 10:58:34;;;;;;;9.85;1.45;;;;;;;;;;5014987;28;20045;-56
2021/12/20 11:03:55;;;;;;;3.45;0.80;;;;;;;;;;5015459;28;20111;-59
2021/12/20 11:09:09;;;;;;;5.68;1.05;;;;;;;;;;5015190;28;20438;-58
2021/12/20 11:11:39;;;;;;;4.55;1.02;;;;;;;;;;5014997;28;20096;-59
2021/12/20 11:14:07;;;;;;;6.35;1.25;;;;;;;;;;5014832;28;20473;-53
2021/12/20 11:16:39;;;;;;;2.75;1.08;;;;;;;;;;5014831;28;20482;-56
2021/12/20 11:19:18;;;;;;;2.88;0.80;;;;;;;;;;5014804;28;20128;-59
2021/12/20 11:21:56;;;;;;;7.75;1.08;;;;;;;;;;5014757;28;20050;-55
2021/12/20 11:24:25;;;;;;;4.53;1.77;;;;;;;;;;5014493;28;20014;-59
2021/12/20 11:26:53;;;;;;;2.22;0.90;;;;;;;;;;5014081;28;20037;-53
2021/12/20 11:29:20;;;;;;;4.03;1.83;;;;;;;;;;5014655;28;20026;-57
2021/12/20 11:31:47;;;;;;;8.80;1.33;;;;;;;;;;5014296;28;20061;-51
2021/12/20 11:34:15;;;;;;;3.00;1.05;;;;;;;;;;5014679;28;20076;-57
2021/12/20 11:36:42;;;;;;;5.55;1.23;;;;;;;;;;5014289;28;20026;-53
2021/12/20 11:39:10;;;;;;;4.32;1.40;;;;;;;;;;5013980;28;20038;-51
2021/12/20 11:41:37;;;;;;;5.80;2.22;;;;;;;;;;5014678;28;20300;-59
2021/12/20 11:44:06;;;;;;;5.03;1.90;;;;;;;;;;5014223;28;20034;-49
2021/12/20 11:46:38;;;;;;;4.90;1.27;;;;;;;;;;5014286;28;20021;-55
2021/12/20 11:49:06;;;;;;;6.80;1.63;;;;;;;;;;5013823;28;20046;-53
2021/12/20 11:51:51;;;;;;;5.03;1.23;;;;;;;;;;5014520;28;20091;-52
2021/12/20 11:54:34;;;;;;;4.18;1.40;;;;;;;;;;5014312;28;20029;-55
2021/12/20 11:57:01;;;;;;;8.25;2.00;;;;;;;;;;5013965;28;20026;-54
2021/12/20 11:59:49;;;;;;;4.53;1.40;;;;;;;;;;5012621;28;20113;-55
2021/12/20 12:02:35;;;;;;;5.00;1.10;;;;;;;;;;5013980;28;20393;-55
2021/12/20 12:05:09;;;;;;;4.43;1.30;;;;;;;;;;5014143;28;20018;-51
2021/12/20 12:07:37;;;;;;;10.18;2.20;;;;;;;;;;5013810;28;20029;-48
2021/12/20 12:10:05;;;;;;;5.53;1.45;;;;;;;;;;5013403;28;20152;-49
2021/12/20 12:12:34;;;;;;;7.22;1.40;;;;;;;;;;5013360;28;20034;-51
2021/12/20 12:15:06;;;;;;;5.38;1.20;;;;;;;;;;5013886;28;20030;-49
2021/12/20 12:17:50;;;;;;;7.57;1.40;;;;;;;;;;5013603;28;20030;-48
2021/12/20 12:20:37;;;;;;;5.40;1.35;;;;;;;;;;5013697;28;20029;-49
2021/12/20 12:23:18;;;;;;;17.65;2.20;;;;;;;;;;5013856;28;20018;-52
2021/12/20 12:25:49;;;;;;;2.85;1.20;;;;;;;;;;5013914;28;20026;-51
2021/12/20 12:28:17;;;;;;;3.47;1.00;;;;;;;;;;5013101;28;20026;-50
2021/12/20 12:30:46;;;;;;;3.35;1.30;;;;;;;;;;5011934;28;20045;-51
2021/12/20 12:33:17;;;;;;;3.72;1.58;;;;;;;;;;5011790;28;20014;-48
2021/12/20 12:35:49;;;;;;;5.97;1.40;;;;;;;;;;5012195;28;20104;-53
2021/12/20 12:38:16;;;;;;;;;;;;;;;;;;5013038;28;20211;-55
2021/12/20 12:40:46;;;;;;;4.65;1.25;;;;;;;;;;5012041;28;19913;-53
2021/12/20 12:43:16;;;;;;;2.90;1.33;;;;;;;;;;5012433;28;20033;-48
2021/12/20 12:45:56;;;;;;;5.00;1.38;;;;;;;;;;4995203;28;20439;-49
2021/12/20 12:48:55;;;;;;;4.32;2.05;;;;;;;;;;5007432;28;20112;-56
2021/12/20 12:51:22;;;;;;;3.22;1.58;;;;;;;;;;4966988;28;20568;-57
2021/12/20 12:53:53;;;;;;;1.80;1.00;;;;;;;;;;5011856;28;20470;-53
2021/12/20 12:56:26;;;;;;;2.97;0.95;;;;;;;;;;5011645;28;20508;-54
2021/12/20 12:59:12;;;;;;;3.13;1.08;;;;;;;;;;4994397;28;20397;-61
2021/12/20 13:01:39;;;;;;;9.73;2.38;;;;;;;;;;5031810;28;20025;-52
2021/12/20 13:04:07;;;;;;;1.80;1.00;;;;;;;;;;5032483;28;20105;-58
2021/12/20 13:06:34;;;;;;;2.67;1.20;;;;;;;;;;5028509;28;20045;-58
2021/12/20 13:09:01;;;;;;;5.93;1.10;;;;;;;;;;5011185;28;20048;-61
2021/12/20 13:11:30;;;;;;;2.13;0.95;;;;;;;;;;5011052;28;20083;-53
2021/12/20 13:14:09;;;;;;;2.75;0.90;;;;;;;;;;5011805;28;20470;-58
2021/12/20 13:16:42;;;;;;;3.22;1.40;;;;;;;;;;5012219;28;20038;-55
2021/12/20 13:19:10;;;;;;;2.65;1.15;;;;;;;;;;5012076;28;20125;-57
2021/12/20 13:21:49;;;;;;;4.00;1.20;;;;;;;;;;5002486;28;20025;-55
2021/12/20 13:24:17;;;;;;;6.60;1.25;;;;;;;;;;4999447;28;20466;-58
2021/12/20 13:26:44;;;;;;;8.05;1.10;;;;;;;;;;5003173;28;20023;-55
2021/12/20 13:29:16;;;;;;;4.28;1.00;;;;;;;;;;5004849;28;20033;-54
2021/12/20 13:31:43;;;;;;;4.60;1.30;;;;;;;;;;5002914;28;20359;-54
2021/12/20 13:34:14;;;;;;;6.60;1.15;;;;;;;;;;5004289;28;20114;-51
2021/12/20 13:36:50;;;;;;;4.63;0.90;;;;;;;;;;4999122;28;20045;-51
2021/12/20 13:39:17;;;;;;;9.30;1.35;;;;;;;;;;5001259;28;20132;-48
2021/12/20 13:41:44;;;;;;;4.32;1.50;;;;;;;;;;5000172;28;20106;-51
2021/12/20 13:44:15;;;;;;;10.85;1.92;;;;;;;;;;5000648;28;20089;-49
2021/12/20 13:46:43;;;;;;;6.00;1.20;;;;;;;;;;5001964;28;20038;-54
2021/12/20 13:49:11;;;;;;;9.43;1.95;;;;;;;;;;5004531;28;20066;-52
2021/12/20 13:51:38;;;;;;;6.25;1.40;;;;;;;;;;4993215;28;20426;-53
2021/12/20 13:54:24;;;;;;;6.95;1.48;;;;;;;;;;5005590;28;20386;-53
2021/12/20 13:56:52;;;;;;;6.32;1.30;;;;;;;;;;4999110;28;20042;-50
2021/12/20 13:59:23;;;;;;;15.98;1.40;;;;;;;;;;4999714;28;20486;-55
2021/12/20 14:01:50;;;;;;;9.40;1.83;;;;;;;;;;4999530;28;20061;-50
2021/12/20 14:04:31;;;;;;;19.20;2.38;;;;;;;;;;4999629;28;20069;-56
2021/12/20 14:06:59;;;;;;;7.72;2.22;;;;;;;;;;5003998;28;20029;-47
2021/12/20 14:09:37;;;;;;;11.20;1.90;;;;;;;;;;5004545;28;20442;-51
2021/12/20 14:12:22;;;;;;;11.45;2.08;;;;;;;;;;5000358;28;20038;-58
2021/12/20 14:15:07;;;;;;;10.90;2.38;;;;;;;;;;4999965;28;20472;-48
2021/12/20 14:17:52;;;;;;;15.60;2.95;;;;;;;;;;5000178;28;20034;-52
2021/12/20 14:20:19;;;;;;;9.65;1.75;;;;;;;;;;5005879;28;20116;-59
2021/12/20 14:22:55;;;;;;;8.68;1.60;;;;;;;;;;5005836;28;20486;-48
2021/12/20 14:25:29;;;;;;;13.60;1.45;;;;;;;;;;5001188;28;20764;-56
2021/12/20 14:28:00;;;;;;;10.57;2.00;;;;;;;;;;4997335;28;20042;-50
2021/12/20 14:30:27;;;;;;;18.88;2.72;;;;;;;;;;5004720;28;20026;-57
2021/12/20 14:32:54;;;;;;;8.85;1.85;;;;;;;;;;5000964;28;20031;-51
2021/12/20 14:35:32;;;;;;;19.02;2.42;;;;;;;;;;5004846;28;20049;-50
2021/12/20 14:38:01;;;;;;;13.10;1.95;;;;;;;;;;5003321;28;20079;-52
2021/12/20 14:40:40;;;;;;;6.70;2.00;;;;;;;;;;5002724;28;20052;-50
2021/12/20 14:43:14;;;;;;;13.90;1.95;;;;;;;;;;5004739;28;20104;-54
2021/12/20 14:45:43;;;;;;;12.30;2.38;;;;;;;;;;5002503;28;20034;-52
2021/12/20 14:48:16;;;;;;;11.80;2.08;;;;;;;;;;4998603;28;20148;-57
2021/12/20 14:50:47;;;;;;;6.93;1.77;;;;;;;;;;5001866;28;20089;-56
2021/12/20 14:53:19;;;;;;;11.93;2.20;;;;;;;;;;5007304;28;20092;-57
2021/12/20 14:55:46;;;;;;;15.37;2.17;;;;;;;;;;5004178;28;20321;-55
2021/12/20 14:58:13;;;;;;;13.52;2.55;;;;;;;;;;4974028;28;20031;-51
2021/12/20 15:00:42;;;;;;;11.18;3.17;;;;;;;;;;5003319;28;20041;-51
2021/12/20 15:03:09;;;;;;;5.57;1.35;;;;;;;;;;5001103;28;20084;-51
2021/12/20 15:05:36;;;;;;;10.45;2.97;;;;;;;;;;5000647;28;20486;-57
2021/12/20 15:08:04;;;;;;;12.63;2.20;;;;;;;;;;5004621;28;20038;-56
2021/12/20 15:10:31;;;;;;;9.23;1.98;;;;;;;;;;4991939;28;20022;-50
2021/12/20 15:12:59;;;;;;;12.77;1.88;;;;;;;;;;5000801;28;20033;-57
2021/12/20 15:15:28;;;;;;;8.50;1.73;;;;;;;;;;4999676;28;20066;-50